Time;durP1;ratioP1;P1;durP2;ratioP2;P2;SDS_P1;SDS_P2;PMS_P1;PMS_P2;Temp;Humidity;BMP_temperature;BMP_pressure;BME280_temperature;BME280_humidity;BME280_pressure;Samples;Min_cycle;Max_cycle;Signal;HPM_P1;HPM_P2
2024/01/25 00:00:16;;;;;;;1.00;0.50;;;7.20;99.90;;;;;;4971866;28;20058;-89
2024/01/25 00:02:43;;;;;;;2.33;0.90;;;7.10;99.90;;;;;;4975246;28;20112;-89
2024/01/25 00:05:11;;;;;;;1.02;0.38;;;7.10;99.90;;;;;;4972685;28;20764;-90
2024/01/25 00:07:48;;;;;;;1.08;0.45;;;7.10;99.90;;;;;;4972677;28;20133;-90
2024/01/25 00:10:19;;;;;;;0.55;0.40;;;7.10;99.90;;;;;;4973196;28;20078;-91
2024/01/25 00:12:46;;;;;;;1.55;0.38;;;7.10;99.90;;;;;;4973772;28;20423;-90
2024/01/25 00:15:14;;;;;;;0.85;0.50;;;7.00;99.90;;;;;;4975185;28;20081;-90
2024/01/25 00:17:43;;;;;;;0.82;0.68;;;7.00;99.90;;;;;;4975590;28;20057;-90
2024/01/25 00:20:11;;;;;;;2.83;1.17;;;7.00;99.90;;;;;;4975768;28;20092;-91
2024/01/25 00:22:42;;;;;;;1.15;0.45;;;6.90;99.90;;;;;;4972097;28;20057;-92
2024/01/25 00:25:13;;;;;;;1.38;0.60;;;7.00;99.90;;;;;;4989394;28;20083;-91
2024/01/25 00:27:41;;;;;;;0.68;0.57;;;6.90;99.90;;;;;;4975698;28;20054;-91
2024/01/25 00:30:14;;;;;;;1.90;0.52;;;6.90;99.90;;;;;;4963303;28;20260;-91
2024/01/25 00:32:45;;;;;;;1.65;0.50;;;6.90;99.90;;;;;;4992374;28;20156;-90
2024/01/25 00:35:15;;;;;;;1.25;0.70;;;6.80;99.90;;;;;;4962633;28;20121;-90
2024/01/25 00:37:44;;;;;;;0.85;0.50;;;6.80;99.90;;;;;;4978414;28;20054;-90
2024/01/25 00:40:13;;;;;;;2.05;0.73;;;6.80;99.90;;;;;;4962274;28;20057;-91
2024/01/25 00:42:48;;;;;;;1.42;0.70;;;6.80;99.90;;;;;;4962679;28;20061;-90
2024/01/25 00:45:18;;;;;;;1.75;0.60;;;6.70;99.90;;;;;;4964420;28;20054;-90
2024/01/25 00:47:46;;;;;;;1.25;0.60;;;6.70;99.90;;;;;;4993754;28;20046;-91
2024/01/25 00:50:19;;;;;;;1.35;0.50;;;6.70;99.90;;;;;;4995369;28;20050;-91
2024/01/25 00:52:51;;;;;;;2.45;0.75;;;6.60;99.90;;;;;;4994648;28;20570;-90
2024/01/25 00:55:19;;;;;;;1.52;0.52;;;6.50;99.90;;;;;;4961868;28;20161;-91
2024/01/25 00:57:47;;;;;;;0.93;0.60;;;6.50;99.90;;;;;;4961733;28;20064;-88
2024/01/25 01:00:15;;;;;;;2.00;0.85;;;6.40;99.90;;;;;;4961295;28;20163;-90
2024/01/25 01:02:46;;;;;;;3.17;0.90;;;6.40;99.90;;;;;;4961919;28;20066;-91
2024/01/25 01:05:15;;;;;;;1.45;0.60;;;6.40;99.90;;;;;;4977122;28;20054;-88
2024/01/25 01:07:44;;;;;;;1.33;0.60;;;6.30;99.90;;;;;;4961452;28;20053;-89
2024/01/25 01:10:14;;;;;;;1.80;0.63;;;6.40;99.90;;;;;;4962806;28;20058;-90
2024/01/25 01:12:47;;;;;;;0.95;0.55;;;6.30;1.00;;;;;;4958810;28;20062;-91
2024/01/25 01:15:22;;;;;;;1.58;0.70;;;6.30;1.00;;;;;;4958078;28;20244;-91
2024/01/25 01:17:52;;;;;;;1.77;1.02;;;6.30;99.90;;;;;;4972897;28;20061;-90
2024/01/25 01:20:19;;;;;;;0.77;0.50;;;6.20;99.90;;;;;;4958415;28;20529;-91
2024/01/25 01:22:47;;;;;;;0.77;0.40;;;6.20;99.90;;;;;;4976218;28;20397;-89
2024/01/25 01:25:17;;;;;;;2.42;0.60;;;6.10;99.90;;;;;;4958250;28;20054;-89
2024/01/25 01:27:45;;;;;;;1.27;0.57;;;6.10;99.90;;;;;;4957533;28;20066;-90
2024/01/25 01:30:15;;;;;;;1.10;0.47;;;6.00;99.90;;;;;;4957612;28;20058;-90
2024/01/25 01:32:43;;;;;;;1.55;0.60;;;6.00;1.00;;;;;;4983190;28;20053;-89
2024/01/25 01:35:12;;;;;;;2.38;1.05;;;6.00;1.00;;;;;;4974816;28;20069;-90
2024/01/25 01:37:43;;;;;;;0.88;0.60;;;5.90;1.00;;;;;;4972576;28;20388;-90
2024/01/25 01:40:11;;;;;;;1.42;0.60;;;5.90;1.00;;;;;;4973655;28;20050;-91
2024/01/25 01:42:38;;;;;;;2.33;0.60;;;5.90;1.00;;;;;;4989598;28;20096;-89
2024/01/25 01:45:10;;;;;;;1.70;0.50;;;5.90;1.00;;;;;;4975828;28;20149;-89
2024/01/25 01:47:42;;;;;;;0.43;0.30;;;5.80;1.00;;;;;;4975292;28;20054;-89
2024/01/25 01:50:10;;;;;;;1.48;0.70;;;5.70;1.00;;;;;;4991518;28;20495;-90
2024/01/25 01:52:41;;;;;;;1.08;0.60;;;5.70;1.00;;;;;;4975151;28;20095;-89
2024/01/25 01:55:09;;;;;;;0.60;0.40;;;5.70;1.00;;;;;;4989409;28;20053;-89
2024/01/25 01:57:37;;;;;;;1.10;0.50;;;5.80;1.00;;;;;;4973308;28;20560;-88
2024/01/25 02:00:08;;;;;;;0.80;0.50;;;5.70;1.00;;;;;;4972600;28;20057;-90
2024/01/25 02:02:35;;;;;;;1.80;0.75;;;5.70;29.10;;;;;;5004580;28;20136;-89
2024/01/25 02:05:13;;;;;;;1.00;0.60;;;5.70;90.30;;;;;;4976278;28;20058;-90
2024/01/25 02:07:41;;;;;;;1.52;0.60;;;5.70;92.40;;;;;;4992228;28;20046;-89
2024/01/25 02:10:10;;;;;;;0.95;0.50;;;5.70;78.40;;;;;;4975550;28;20116;-91
2024/01/25 02:12:38;;;;;;;0.40;0.40;;;5.60;14.70;;;;;;4973296;28;20053;-90
2024/01/25 02:15:13;;;;;;;1.10;0.40;;;5.60;66.60;;;;;;4987942;28;20080;-89
2024/01/25 02:17:40;;;;;;;0.82;0.50;;;5.50;95.50;;;;;;4992321;28;20057;-90
2024/01/25 02:20:08;;;;;;;1.45;0.85;;;5.50;99.90;;;;;;4976741;28;20104;-91
2024/01/25 02:22:35;;;;;;;1.02;0.60;;;5.50;99.90;;;;;;4977081;28;20081;-91
2024/01/25 02:25:07;;;;;;;0.35;0.30;;;5.50;99.90;;;;;;4976312;28;20054;-90
2024/01/25 02:27:38;;;;;;;0.85;0.40;;;5.50;89.40;;;;;;4977546;28;20136;-90
2024/01/25 02:30:13;;;;;;;1.05;0.43;;;5.40;1.00;;;;;;4976387;28;20057;-90
2024/01/25 02:32:43;;;;;;;1.00;0.75;;;5.40;1.00;;;;;;4991861;28;20056;-89
2024/01/25 02:35:13;;;;;;;1.38;0.40;;;5.30;1.00;;;;;;4960255;28;20085;-91
2024/01/25 02:37:40;;;;;;;1.25;0.50;;;5.30;12.50;;;;;;4958546;28;20054;-90
2024/01/25 02:40:09;;;;;;;0.63;0.45;;;5.30;1.00;;;;;;4959614;28;20054;-89
2024/01/25 02:42:40;;;;;;;1.08;0.50;;;5.30;59.40;;;;;;4970981;28;20081;-90
2024/01/25 02:45:16;;;;;;;1.08;0.52;;;5.30;51.60;;;;;;4991220;28;20465;-90
2024/01/25 02:47:44;;;;;;;0.85;0.47;;;5.30;53.40;;;;;;4992956;28;20110;-88
2024/01/25 02:50:12;;;;;;;1.42;0.85;;;5.30;46.10;;;;;;4974622;28;20077;-90
2024/01/25 02:52:40;;;;;;;1.30;0.70;;;5.30;60.70;;;;;;4976124;28;20137;-89
2024/01/25 02:55:08;;;;;;;0.80;0.50;;;5.30;1.00;;;;;;4991336;28;20060;-88
2024/01/25 02:57:35;;;;;;;1.70;0.77;;;5.20;1.00;;;;;;4994339;28;20133;-89
2024/01/25 03:00:04;;;;;;;1.17;0.50;;;5.20;3.50;;;;;;4995940;28;20050;-89
2024/01/25 03:02:32;;;;;;;1.25;0.45;;;5.20;19.70;;;;;;5000676;28;20054;-90
2024/01/25 03:04:59;;;;;;;0.93;0.60;;;5.30;61.60;;;;;;4982799;28;20181;-89
2024/01/25 03:07:28;;;;;;;2.92;0.70;;;5.30;98.70;;;;;;4981754;28;20046;-89
2024/01/25 03:10:04;;;;;;;1.33;0.60;;;5.30;41.30;;;;;;4980710;28;20049;-89
2024/01/25 03:12:32;;;;;;;1.08;0.70;;;5.30;91.80;;;;;;4982185;28;20092;-90
2024/01/25 03:15:03;;;;;;;2.28;0.57;;;5.30;82.90;;;;;;5012648;28;20054;-90
2024/01/25 03:17:32;;;;;;;0.77;0.43;;;5.30;14.20;;;;;;5014175;28;20104;-89
2024/01/25 03:20:13;;;;;;;1.08;0.32;;;5.30;57.30;;;;;;5012204;28;20050;-89
2024/01/25 03:22:43;;;;;;;1.00;0.50;;;5.30;98.10;;;;;;5003520;28;20475;-90
2024/01/25 03:25:11;;;;;;;0.57;0.55;;;5.30;99.90;;;;;;4995843;28;20056;-89
2024/01/25 03:27:38;;;;;;;1.42;0.80;;;5.30;99.90;;;;;;4981610;28;20168;-90
2024/01/25 03:30:10;;;;;;;0.85;0.47;;;5.40;99.90;;;;;;4980012;28;20064;-89
2024/01/25 03:32:37;;;;;;;0.55;0.40;;;5.40;99.90;;;;;;4993437;28;20046;-89
2024/01/25 03:35:15;;;;;;;1.25;0.73;;;5.40;99.90;;;;;;4978464;28;20062;-89
2024/01/25 03:37:43;;;;;;;1.40;0.60;;;5.50;98.30;;;;;;4977161;28;20140;-88
2024/01/25 03:40:10;;;;;;;1.55;0.70;;;5.50;99.90;;;;;;4977928;28;20058;-88
2024/01/25 03:43:01;;;;;;;0.95;0.47;;;5.60;99.90;;;;;;4998710;28;20068;-88
2024/01/25 03:45:51;;;;;;;0.88;0.50;;;5.60;28.00;;;;;;4997814;28;20050;-90
2024/01/25 03:48:19;;;;;;;1.42;0.63;;;5.60;1.00;;;;;;4995835;28;20144;-88
2024/01/25 03:50:56;;;;;;;1.30;0.80;;;5.70;1.00;;;;;;4980896;28;20058;-88
2024/01/25 03:53:25;;;;;;;1.15;0.45;;;5.70;1.00;;;;;;4982962;28;20060;-91
2024/01/25 03:55:52;;;;;;;0.70;0.45;;;5.70;1.00;;;;;;4982173;28;20050;-90
2024/01/25 03:58:19;;;;;;;1.15;0.60;;;5.80;1.00;;;;;;4980572;28;20348;-91
2024/01/25 04:00:48;;;;;;;1.05;0.45;;;5.80;1.00;;;;;;4980086;28;20058;-90
2024/01/25 04:03:15;;;;;;;1.20;0.47;;;5.80;1.00;;;;;;4977577;28;20408;-90
2024/01/25 04:05:42;;;;;;;2.10;0.80;;;5.80;1.00;;;;;;4977718;28;20062;-91
2024/01/25 04:08:10;;;;;;;1.15;0.50;;;5.80;84.40;;;;;;4977152;28;20512;-90
2024/01/25 04:10:42;;;;;;;3.80;0.80;;;5.80;99.90;;;;;;4975870;28;20046;-90
2024/01/25 04:13:11;;;;;;;0.85;0.30;;;5.90;99.90;;;;;;4989016;28;20552;-91
2024/01/25 04:15:42;;;;;;;1.40;0.70;;;5.90;99.90;;;;;;5012139;28;20065;-91
2024/01/25 04:18:14;;;;;;;1.30;0.50;;;5.90;99.90;;;;;;5008530;28;20081;-90
2024/01/25 04:20:51;;;;;;;2.15;0.65;;;5.90;99.90;;;;;;5009694;28;20391;-90
2024/01/25 04:23:18;;;;;;;1.45;0.55;;;6.00;99.90;;;;;;5009244;28;20169;-90
2024/01/25 04:25:46;;;;;;;0.80;0.50;;;6.00;99.90;;;;;;5010630;28;20511;-90
2024/01/25 04:28:14;;;;;;;0.57;0.43;;;6.00;99.90;;;;;;5007767;28;20056;-89
2024/01/25 04:30:44;;;;;;;1.33;0.63;;;6.10;99.90;;;;;;5008332;28;20120;-89
2024/01/25 04:33:11;;;;;;;1.55;0.80;;;6.10;99.90;;;;;;4998226;28;20057;-90
2024/01/25 04:35:44;;;;;;;1.50;0.60;;;6.10;99.90;;;;;;4980471;28;20525;-90
2024/01/25 04:38:13;;;;;;;1.73;0.82;;;6.20;99.90;;;;;;4979737;28;20049;-90
2024/01/25 04:40:40;;;;;;;0.98;0.47;;;6.20;99.90;;;;;;4978981;28;20605;-88
2024/01/25 04:43:07;;;;;;;0.70;0.40;;;6.30;99.90;;;;;;4980029;28;20049;-89
2024/01/25 04:45:37;;;;;;;1.65;0.77;;;6.30;99.90;;;;;;4977819;28;20065;-88
2024/01/25 04:48:06;;;;;;;1.30;0.60;;;6.40;99.90;;;;;;4992669;28;20058;-90
2024/01/25 04:50:36;;;;;;;1.15;0.50;;;6.50;99.90;;;;;;4992339;28;20365;-91
2024/01/25 04:53:05;;;;;;;0.95;0.50;;;6.50;99.90;;;;;;4992653;28;20069;-90
2024/01/25 04:55:35;;;;;;;0.82;0.50;;;6.50;99.90;;;;;;5010952;28;20212;-92
2024/01/25 04:58:02;;;;;;;0.93;0.40;;;6.60;99.90;;;;;;5009695;28;20057;-92
2024/01/25 05:00:30;;;;;;;0.70;0.50;;;6.70;99.90;;;;;;5010137;28;20145;-91
2024/01/25 05:02:57;;;;;;;1.50;0.73;;;6.70;99.90;;;;;;5010888;28;20385;-91
2024/01/25 05:05:25;;;;;;;1.80;0.70;;;6.80;99.90;;;;;;4982564;28;20072;-89
2024/01/25 05:08:01;;;;;;;1.33;0.60;;;6.90;99.90;;;;;;4980715;28;20257;-90
2024/01/25 05:10:28;;;;;;;1.13;0.60;;;7.00;99.90;;;;;;4980436;28;20077;-90
2024/01/25 05:12:55;;;;;;;2.33;0.60;;;7.00;99.90;;;;;;4978289;28;20057;-90
2024/01/25 05:15:25;;;;;;;1.58;0.70;;;7.10;99.90;;;;;;5011456;28;20109;-89
2024/01/25 05:17:52;;;;;;;1.40;0.90;;;7.10;99.90;;;;;;5011732;28;20407;-90
2024/01/25 05:20:19;;;;;;;1.30;0.50;;;7.20;99.90;;;;;;5009493;28;20080;-90
2024/01/25 05:22:47;;;;;;;0.93;0.45;;;7.20;99.90;;;;;;5003152;28;20076;-89
2024/01/25 05:25:14;;;;;;;0.70;0.40;;;7.30;99.90;;;;;;4978094;28;20073;-88
2024/01/25 05:27:42;;;;;;;3.67;1.40;;;7.40;99.90;;;;;;4977989;28;20064;-88
2024/01/25 05:30:11;;;;;;;1.20;0.60;;;7.50;99.90;;;;;;4981558;28;20065;-88
2024/01/25 05:32:46;;;;;;;1.13;0.50;;;7.50;99.90;;;;;;4979729;28;20054;-90
2024/01/25 05:35:16;;;;;;;0.73;0.45;;;7.50;99.90;;;;;;4980545;28;20050;-90
2024/01/25 05:37:44;;;;;;;1.42;0.80;;;7.60;99.90;;;;;;4995667;28;20079;-91
2024/01/25 05:40:18;;;;;;;0.60;0.47;;;7.60;99.90;;;;;;4977006;28;20479;-88
2024/01/25 05:42:47;;;;;;;1.02;0.70;;;7.70;99.90;;;;;;4978620;28;20119;-89
2024/01/25 05:45:19;;;;;;;1.13;0.52;;;7.70;99.90;;;;;;4979122;28;20054;-89
2024/01/25 05:47:51;;;;;;;2.53;1.27;;;7.80;99.90;;;;;;4976798;28;20139;-91
2024/01/25 05:50:21;;;;;;;1.23;0.55;;;7.80;99.90;;;;;;4959636;28;20046;-90
2024/01/25 05:52:48;;;;;;;1.20;0.70;;;7.90;99.90;;;;;;4978242;28;20061;-89
2024/01/25 05:55:17;;;;;;;1.83;0.70;;;7.90;99.90;;;;;;4977235;28;20077;-90
2024/01/25 05:57:46;;;;;;;1.70;0.60;;;8.00;99.90;;;;;;4978392;28;20042;-90
2024/01/25 06:00:16;;;;;;;1.10;0.60;;;8.00;1.00;;;;;;4977595;28;20066;-88
2024/01/25 06:02:53;;;;;;;;;;;8.10;1.00;;;;;;4978748;28;20050;-92
2024/01/25 06:05:49;;;;;;;1.57;0.80;;;8.20;99.90;;;;;;5009368;28;19925;-91
2024/01/25 06:08:19;;;;;;;2.20;0.82;;;8.20;25.30;;;;;;5009617;28;20326;-92
2024/01/25 06:10:47;;;;;;;2.15;0.70;;;8.30;99.90;;;;;;5025408;28;20061;-92
2024/01/25 06:13:16;;;;;;;2.53;0.95;;;8.40;88.70;;;;;;4979902;28;20064;-92
2024/01/25 06:15:44;;;;;;;3.30;1.25;;;8.40;99.90;;;;;;4979793;28;20488;-87
2024/01/25 06:18:15;;;;;;;3.88;1.23;;;8.40;99.90;;;;;;4978031;28;20073;-90
2024/01/25 06:20:58;;;;;;;2.72;1.23;;;8.50;99.90;;;;;;4993861;28;20138;-94
2024/01/25 06:23:30;;;;;;;1.83;0.80;;;8.50;55.50;;;;;;4989827;28;20046;-92
2024/01/25 06:25:57;;;;;;;2.05;0.85;;;8.50;99.90;;;;;;4972200;28;20297;-92
2024/01/25 06:28:25;;;;;;;3.22;1.30;;;8.60;1.00;;;;;;4980504;28;20424;-92
2024/01/25 06:30:55;;;;;;;3.83;1.25;;;8.60;1.00;;;;;;5006424;28;20065;-91
2024/01/25 06:33:22;;;;;;;3.35;1.33;;;8.70;99.90;;;;;;4990480;28;20064;-92
2024/01/25 06:35:50;;;;;;;2.25;1.25;;;8.70;99.90;;;;;;4982762;28;20069;-93
2024/01/25 06:38:22;;;;;;;3.92;1.30;;;8.80;99.90;;;;;;4966203;28;20102;-92
2024/01/25 06:40:57;;;;;;;3.73;1.33;;;8.80;99.90;;;;;;4964861;28;20050;-91
2024/01/25 06:43:27;;;;;;;2.47;1.10;;;8.80;99.90;;;;;;4979661;28;20045;-93
2024/01/25 06:45:58;;;;;;;4.55;1.48;;;8.80;99.90;;;;;;4982176;28;20057;-93
2024/01/25 06:48:28;;;;;;;2.63;1.13;;;8.80;99.90;;;;;;4997676;28;20148;-89
2024/01/25 06:50:55;;;;;;;3.00;1.25;;;8.80;99.90;;;;;;4978056;28;20089;-89
2024/01/25 06:53:25;;;;;;;2.63;1.10;;;8.80;99.90;;;;;;4975789;28;20054;-89
2024/01/25 06:55:55;;;;;;;2.83;1.23;;;8.90;99.90;;;;;;4998302;28;20042;-91
2024/01/25 06:58:24;;;;;;;2.10;0.90;;;8.90;99.90;;;;;;4964887;28;20050;-90
2024/01/25 07:00:53;;;;;;;3.17;1.02;;;9.00;99.90;;;;;;4963632;28;20145;-90
2024/01/25 07:03:40;;;;;;;1.85;0.85;;;9.00;99.90;;;;;;4971283;28;20075;-91
2024/01/25 07:06:15;;;;;;;1.52;0.75;;;9.00;99.90;;;;;;4982044;28;20122;-89
2024/01/25 07:08:42;;;;;;;3.03;0.98;;;9.00;99.90;;;;;;4966066;28;20365;-90
2024/01/25 07:11:17;;;;;;;1.77;0.52;;;9.00;99.90;;;;;;4979166;28;20053;-88
2024/01/25 07:13:44;;;;;;;1.83;0.80;;;9.10;99.90;;;;;;4986665;28;20050;-81
2024/01/25 07:16:11;;;;;;;2.15;0.80;;;9.10;45.70;;;;;;4984815;28;20131;-80
2024/01/25 07:18:38;;;;;;;1.92;0.80;;;9.10;75.60;;;;;;5004049;28;20466;-80
2024/01/25 07:21:05;;;;;;;2.28;0.50;;;9.20;99.90;;;;;;4989722;28;20050;-81
2024/01/25 07:23:33;;;;;;;1.98;0.68;;;9.20;99.90;;;;;;4972051;28;20061;-80
2024/01/25 07:26:00;;;;;;;1.88;0.90;;;9.10;99.90;;;;;;4956954;28;20054;-81
2024/01/25 07:28:27;;;;;;;2.33;0.90;;;9.20;99.90;;;;;;4956361;28;20100;-81
2024/01/25 07:30:54;;;;;;;0.60;0.60;;;9.20;99.90;;;;;;4957400;28;20058;-80
2024/01/25 07:33:22;;;;;;;1.65;0.60;;;9.20;99.90;;;;;;4972588;28;20069;-81
2024/01/25 07:35:49;;;;;;;1.25;0.73;;;9.20;99.90;;;;;;4973443;28;20421;-80
2024/01/25 07:38:19;;;;;;;0.98;0.70;;;9.30;99.90;;;;;;4955921;28;20088;-81
2024/01/25 07:40:46;;;;;;;1.02;0.50;;;9.30;99.90;;;;;;4957005;28;20050;-81
2024/01/25 07:43:13;;;;;;;1.88;0.85;;;9.30;99.10;;;;;;4956563;28;20379;-81
2024/01/25 07:45:40;;;;;;;2.63;0.85;;;9.30;99.90;;;;;;4973018;28;20395;-81
2024/01/25 07:48:07;;;;;;;1.85;0.60;;;9.30;99.90;;;;;;4957133;28;20058;-82
2024/01/25 07:50:41;;;;;;;1.70;0.70;;;9.30;99.90;;;;;;4955838;28;20058;-81
2024/01/25 07:53:09;;;;;;;1.58;0.50;;;9.30;98.10;;;;;;4977759;28;20050;-79
2024/01/25 07:55:36;;;;;;;1.33;0.63;;;9.30;99.90;;;;;;5006458;28;20507;-82
2024/01/25 07:58:03;;;;;;;2.63;1.00;;;9.30;99.90;;;;;;4954740;28;20060;-81
2024/01/25 08:00:30;;;;;;;0.95;0.50;;;9.30;99.90;;;;;;4956625;28;20049;-82
2024/01/25 08:02:57;;;;;;;1.05;0.77;;;9.40;99.90;;;;;;4961602;28;20057;-80
2024/01/25 08:05:25;;;;;;;1.50;0.60;;;9.40;99.90;;;;;;4960563;28;20050;-82
2024/01/25 08:08:07;;;;;;;1.00;0.45;;;9.40;99.90;;;;;;4951509;28;20068;-81
2024/01/25 08:10:35;;;;;;;1.70;0.50;;;9.40;99.90;;;;;;4967282;28;20046;-82
2024/01/25 08:13:02;;;;;;;1.60;0.52;;;9.50;99.90;;;;;;4958009;28;20149;-81
2024/01/25 08:15:34;;;;;;;0.73;0.50;;;9.50;99.90;;;;;;4958470;28;20073;-81
2024/01/25 08:18:01;;;;;;;1.55;0.65;;;9.50;99.90;;;;;;4956107;28;20146;-81
2024/01/25 08:20:28;;;;;;;0.50;0.40;;;9.50;99.90;;;;;;4988827;28;20042;-81
2024/01/25 08:22:56;;;;;;;0.32;0.30;;;9.50;99.90;;;;;;4955758;28;20108;-82
2024/01/25 08:25:23;;;;;;;0.50;0.30;;;9.60;99.90;;;;;;4971779;28;20078;-81
2024/01/25 08:27:51;;;;;;;0.38;0.20;;;9.60;99.90;;;;;;4972081;28;20054;-81
2024/01/25 08:30:18;;;;;;;0.22;0.22;;;9.60;99.90;;;;;;4955644;28;20061;-82
2024/01/25 08:32:45;;;;;;;0.30;0.28;;;9.60;99.90;;;;;;4952127;28;20132;-81
2024/01/25 08:35:12;;;;;;;0.47;0.30;;;9.70;99.90;;;;;;4953070;28;20058;-81
2024/01/25 08:37:39;;;;;;;0.35;0.30;;;9.70;99.90;;;;;;4953448;28;20080;-82
2024/01/25 08:40:08;;;;;;;0.50;0.50;;;9.80;99.90;;;;;;4952444;28;20050;-83
2024/01/25 08:42:36;;;;;;;0.60;0.30;;;9.80;99.90;;;;;;4958543;28;20062;-82
2024/01/25 08:45:07;;;;;;;0.45;0.25;;;9.80;99.90;;;;;;4971512;28;20045;-82
2024/01/25 08:47:34;;;;;;;0.20;0.20;;;9.90;95.00;;;;;;4973126;28;20084;-77
2024/01/25 08:50:01;;;;;;;0.43;0.30;;;9.90;1.00;;;;;;5003813;28;20430;-81
2024/01/25 08:52:28;;;;;;;0.63;0.40;;;10.00;1.00;;;;;;4954446;28;20050;-82
2024/01/25 08:54:56;;;;;;;0.38;0.35;;;10.00;1.00;;;;;;4954647;28;20523;-81
2024/01/25 08:57:23;;;;;;;0.50;0.40;;;10.00;1.00;;;;;;4971819;28;20056;-82
2024/01/25 08:59:50;;;;;;;0.65;0.50;;;10.10;1.00;;;;;;4971029;28;20053;-81
2024/01/25 09:02:18;;;;;;;0.40;0.40;;;10.10;1.00;;;;;;4953196;28;20049;-81
2024/01/25 09:04:45;;;;;;;0.40;0.32;;;10.20;99.90;;;;;;4965675;28;20278;-81
2024/01/25 09:07:13;;;;;;;0.22;0.22;;;10.20;99.90;;;;;;4979265;28;20057;-81
2024/01/25 09:09:40;;;;;;;0.20;0.20;;;10.30;99.90;;;;;;4977757;28;20046;-81
2024/01/25 09:12:10;;;;;;;0.30;0.30;;;10.30;99.90;;;;;;4989900;28;20049;-80
2024/01/25 09:14:38;;;;;;;0.25;0.25;;;10.30;1.00;;;;;;4963500;28;20120;-81
2024/01/25 09:17:04;;;;;;;0.40;0.40;;;10.30;1.00;;;;;;4965641;28;20124;-80
2024/01/25 09:19:31;;;;;;;0.65;0.40;;;10.40;1.00;;;;;;4964220;28;20052;-80
2024/01/25 09:22:03;;;;;;;0.50;0.50;;;10.40;99.90;;;;;;4945059;28;20598;-82
2024/01/25 09:24:31;;;;;;;0.55;0.45;;;10.50;99.90;;;;;;4964221;28;20547;-79
2024/01/25 09:26:59;;;;;;;0.68;0.43;;;10.50;99.90;;;;;;4965079;28;20060;-80
2024/01/25 09:29:26;;;;;;;0.77;0.43;;;10.60;99.90;;;;;;4962104;28;20076;-81
2024/01/25 09:31:54;;;;;;;0.52;0.50;;;10.70;99.90;;;;;;4949021;28;20491;-80
2024/01/25 09:34:21;;;;;;;0.55;0.40;;;10.70;99.90;;;;;;4979912;28;20117;-80
2024/01/25 09:36:48;;;;;;;0.70;0.50;;;10.80;99.90;;;;;;4964246;28;20076;-80
2024/01/25 09:39:16;;;;;;;0.20;0.20;;;10.90;1.00;;;;;;4960037;28;20046;-80
2024/01/25 09:41:43;;;;;;;0.22;0.22;;;10.90;1.00;;;;;;4961524;28;20072;-80
2024/01/25 09:44:14;;;;;;;0.68;0.43;;;11.00;99.90;;;;;;4986447;28;20475;-80
2024/01/25 09:46:41;;;;;;;1.50;0.40;;;11.10;21.70;;;;;;4980597;28;20070;-88
2024/01/25 09:49:09;;;;;;;0.50;0.50;;;11.10;99.90;;;;;;5001323;28;20038;-84
2024/01/25 09:51:38;;;;;;;0.45;0.40;;;11.20;99.90;;;;;;4995920;28;20137;-78
2024/01/25 09:54:06;;;;;;;0.63;0.60;;;11.20;1.00;;;;;;4993004;28;20635;-79
2024/01/25 09:56:33;;;;;;;0.43;0.38;;;11.30;90.10;;;;;;4995660;28;20054;-80
2024/01/25 09:59:00;;;;;;;0.70;0.40;;;11.30;1.00;;;;;;4979994;28;20050;-80
2024/01/25 10:01:27;;;;;;;0.70;0.50;;;11.40;99.90;;;;;;4994989;28;20108;-81
2024/01/25 10:03:57;;;;;;;0.80;0.40;;;11.40;99.90;;;;;;5005559;28;20490;-81
2024/01/25 10:06:24;;;;;;;0.65;0.60;;;11.40;98.20;;;;;;4986342;28;20604;-81
2024/01/25 10:08:52;;;;;;;1.77;0.77;;;11.50;99.90;;;;;;4969616;28;20108;-80
2024/01/25 10:11:20;;;;;;;1.00;0.50;;;11.50;1.00;;;;;;4986546;28;20049;-80
2024/01/25 10:13:47;;;;;;;0.90;0.50;;;11.60;1.00;;;;;;5001496;28;20046;-79
2024/01/25 10:16:15;;;;;;;0.77;0.50;;;11.60;99.90;;;;;;4986460;28;20050;-79
2024/01/25 10:18:42;;;;;;;0.90;0.63;;;11.70;99.90;;;;;;4986140;28;20050;-80
2024/01/25 10:21:10;;;;;;;1.05;0.50;;;11.80;99.90;;;;;;4968465;28;20088;-81
2024/01/25 10:23:38;;;;;;;0.32;0.32;;;11.90;1.00;;;;;;4981735;28;20049;-81
2024/01/25 10:26:07;;;;;;;0.65;0.40;;;11.80;1.00;;;;;;4968031;28;20065;-81
2024/01/25 10:28:34;;;;;;;0.30;0.30;;;11.90;1.00;;;;;;4982826;28;20133;-81
2024/01/25 10:31:04;;;;;;;0.57;0.43;;;12.00;1.00;;;;;;4967825;28;20137;-81
2024/01/25 10:33:31;;;;;;;0.47;0.43;;;12.00;1.00;;;;;;4983969;28;20088;-81
2024/01/25 10:36:03;;;;;;;0.20;0.20;;;12.00;1.00;;;;;;4983657;28;20074;-81
2024/01/25 10:38:31;;;;;;;0.50;0.40;;;12.10;1.00;;;;;;4982384;28;20133;-81
2024/01/25 10:41:03;;;;;;;0.20;0.20;;;12.20;1.00;;;;;;5001438;28;20069;-81
2024/01/25 10:43:33;;;;;;;0.65;0.50;;;12.20;99.90;;;;;;4968857;28;20050;-81
2024/01/25 10:46:00;;;;;;;0.50;0.50;;;12.20;99.90;;;;;;4986996;28;20145;-83
2024/01/25 10:48:31;;;;;;;0.43;0.40;;;12.20;99.90;;;;;;4970681;28;20486;-82
2024/01/25 10:51:02;;;;;;;0.82;0.50;;;12.30;99.90;;;;;;4968633;28;20054;-83
2024/01/25 10:53:31;;;;;;;0.90;0.52;;;12.30;99.90;;;;;;4966134;28;20050;-82
2024/01/25 10:55:58;;;;;;;0.77;0.40;;;12.30;99.90;;;;;;4965816;28;20120;-78
2024/01/25 10:58:25;;;;;;;1.30;0.60;;;12.40;99.90;;;;;;4984589;28;20041;-81
2024/01/25 11:00:55;;;;;;;0.40;0.30;;;12.40;99.90;;;;;;4970073;28;20054;-80
2024/01/25 11:03:27;;;;;;;0.80;0.50;;;12.50;99.90;;;;;;4985088;28;20050;-80
2024/01/25 11:05:55;;;;;;;1.65;0.75;;;12.50;99.90;;;;;;4998417;28;20484;-80
2024/01/25 11:08:24;;;;;;;1.88;0.60;;;12.50;99.90;;;;;;4981227;28;20053;-80
2024/01/25 11:10:51;;;;;;;3.05;0.88;;;12.50;99.90;;;;;;4968546;28;20054;-81
2024/01/25 11:13:26;;;;;;;1.67;0.93;;;12.50;99.90;;;;;;4984358;28;20058;-81
2024/01/25 11:15:54;;;;;;;1.05;0.75;;;12.50;99.90;;;;;;4970659;28;20076;-81
2024/01/25 11:18:24;;;;;;;1.90;0.85;;;12.60;99.90;;;;;;4989418;28;20527;-82
2024/01/25 11:20:52;;;;;;;2.15;1.13;;;12.60;99.90;;;;;;4971436;28;20088;-81
2024/01/25 11:23:19;;;;;;;1.23;0.80;;;12.70;99.90;;;;;;5000601;28;20057;-82
2024/01/25 11:25:47;;;;;;;2.58;1.30;;;12.80;99.90;;;;;;5002494;28;20058;-82
2024/01/25 11:28:16;;;;;;;1.10;0.80;;;12.70;99.90;;;;;;4968520;28;20050;-83
2024/01/25 11:30:43;;;;;;;1.33;0.90;;;12.80;99.90;;;;;;4986324;28;20129;-82
2024/01/25 11:33:11;;;;;;;1.27;0.98;;;12.80;99.90;;;;;;4968910;28;20132;-83
2024/01/25 11:35:38;;;;;;;2.88;1.05;;;12.90;99.90;;;;;;4970369;28;20050;-83
2024/01/25 11:38:06;;;;;;;2.67;1.20;;;13.00;99.90;;;;;;5006208;28;20192;-91
2024/01/25 11:40:34;;;;;;;2.00;1.15;;;13.10;99.90;;;;;;4989254;28;20208;-81
2024/01/25 11:43:10;;;;;;;3.83;1.60;;;13.20;99.90;;;;;;4997532;28;20061;-79
2024/01/25 11:45:42;;;;;;;2.45;1.00;;;13.20;99.90;;;;;;4998448;28;20576;-80
2024/01/25 11:48:10;;;;;;;0.80;0.57;;;13.20;99.90;;;;;;5004026;28;20058;-80
2024/01/25 11:50:38;;;;;;;1.33;0.95;;;13.30;88.20;;;;;;4996438;28;20525;-79
2024/01/25 11:53:05;;;;;;;1.83;0.90;;;13.30;99.90;;;;;;4997244;28;20115;-80
2024/01/25 11:55:32;;;;;;;1.45;0.95;;;13.40;99.90;;;;;;4998011;28;20056;-80
2024/01/25 11:57:59;;;;;;;1.33;0.93;;;13.50;99.90;;;;;;5003795;28;20108;-80
2024/01/25 12:00:26;;;;;;;1.30;0.70;;;13.60;99.90;;;;;;4964007;28;20058;-81
2024/01/25 12:02:53;;;;;;;1.98;0.90;;;13.60;99.90;;;;;;4958658;28;20088;-81
2024/01/25 12:05:20;;;;;;;1.52;0.80;;;13.70;99.90;;;;;;5000440;28;20045;-80
2024/01/25 12:07:48;;;;;;;1.33;0.70;;;13.80;58.00;;;;;;4996134;28;20133;-80
2024/01/25 12:10:17;;;;;;;1.70;1.02;;;13.90;43.30;;;;;;4997419;28;20046;-78
2024/01/25 12:12:45;;;;;;;0.85;0.65;;;13.80;24.00;;;;;;5005765;28;20113;-79
2024/01/25 12:15:12;;;;;;;1.90;1.00;;;13.70;28.50;;;;;;4981075;28;20053;-79
2024/01/25 12:17:40;;;;;;;1.65;0.90;;;13.70;55.50;;;;;;5007142;28;20129;-80
2024/01/25 12:20:10;;;;;;;1.75;0.82;;;13.70;42.80;;;;;;5000223;28;21796;-80
2024/01/25 12:22:38;;;;;;;1.70;0.80;;;13.70;52.50;;;;;;5016571;28;20061;-80
2024/01/25 12:25:13;;;;;;;1.30;0.80;;;13.70;30.60;;;;;;4998512;28;20836;-81
2024/01/25 12:27:45;;;;;;;0.95;0.70;;;13.60;99.90;;;;;;5010476;28;20116;-81
2024/01/25 12:30:12;;;;;;;3.15;1.10;;;13.60;99.90;;;;;;4981552;28;20090;-80
2024/01/25 12:32:39;;;;;;;2.08;1.15;;;13.50;61.50;;;;;;4994877;28;20167;-80
2024/01/25 12:35:08;;;;;;;3.47;1.15;;;13.40;83.10;;;;;;4984973;28;20056;-81
2024/01/25 12:37:35;;;;;;;2.65;1.15;;;13.30;89.80;;;;;;4990919;28;20056;-82
2024/01/25 12:40:03;;;;;;;1.33;0.63;;;13.30;67.40;;;;;;4985500;28;20046;-80
2024/01/25 12:42:30;;;;;;;1.35;0.70;;;13.40;71.20;;;;;;4971583;28;20139;-79
2024/01/25 12:44:58;;;;;;;1.83;0.88;;;13.40;98.00;;;;;;4982520;28;20475;-81
2024/01/25 12:47:25;;;;;;;1.60;0.85;;;13.50;42.70;;;;;;4998441;28;21004;-80
2024/01/25 12:49:53;;;;;;;2.22;1.10;;;13.40;58.40;;;;;;4980997;28;20090;-80
2024/01/25 12:52:19;;;;;;;2.97;1.00;;;13.40;59.60;;;;;;4985579;28;20133;-79
2024/01/25 12:54:46;;;;;;;2.50;1.02;;;13.40;72.00;;;;;;5002013;28;20864;-80
2024/01/25 12:57:13;;;;;;;2.40;0.73;;;13.40;66.10;;;;;;4969129;28;20046;-79
2024/01/25 12:59:41;;;;;;;2.38;1.00;;;13.40;63.10;;;;;;4984747;28;20120;-80
2024/01/25 13:02:08;;;;;;;2.28;1.00;;;13.40;92.30;;;;;;4986299;28;20050;-80
2024/01/25 13:04:35;;;;;;;1.15;0.70;;;13.40;99.90;;;;;;4982143;28;20133;-80